createdAt,value
2023-06-17T00:02:21.788Z,21.60
2023-06-17T00:04:49.629Z,21.70
2023-06-17T00:07:17.413Z,21.60
2023-06-17T00:09:45.673Z,21.60
2023-06-17T00:12:13.736Z,21.50
2023-06-17T00:14:42.931Z,21.40
2023-06-17T00:17:10.622Z,21.30
2023-06-17T00:19:38.889Z,21.40
2023-06-17T00:22:07.266Z,21.30
2023-06-17T00:24:35.143Z,21.20
2023-06-17T00:27:03.116Z,21.20
2023-06-17T00:29:31.134Z,21.10
2023-06-17T00:31:58.920Z,21.00
2023-06-17T00:34:26.603Z,20.90
2023-06-17T00:36:54.287Z,20.80
2023-06-17T00:39:22.389Z,20.80
2023-06-17T00:41:50.295Z,20.90
2023-06-17T00:44:18.022Z,20.90
2023-06-17T00:46:51.497Z,21.10
2023-06-17T00:49:20.393Z,21.00
2023-06-17T00:51:59.463Z,21.00
2023-06-17T00:54:42.437Z,20.90
2023-06-17T00:57:14.721Z,20.70
2023-06-17T00:59:46.420Z,20.80
2023-06-17T01:02:14.868Z,20.80
2023-06-17T01:04:47.724Z,20.50
2023-06-17T01:07:41.401Z,20.30
2023-06-17T01:10:19.456Z,20.40
2023-06-17T01:12:49.549Z,20.60
2023-06-17T01:15:18.764Z,20.60
2023-06-17T01:17:48.020Z,20.30
2023-06-17T01:20:16.860Z,20.10
2023-06-17T01:22:47.223Z,20.10
2023-06-17T01:25:15.256Z,20.10
2023-06-17T01:27:43.026Z,20.30
2023-06-17T01:30:11.588Z,20.20
2023-06-17T01:32:40.007Z,20.30
2023-06-17T01:35:16.144Z,20.40
2023-06-17T01:37:56.613Z,20.40
2023-06-17T01:40:26.012Z,20.40
2023-06-17T01:42:55.037Z,20.40
2023-06-17T01:45:24.643Z,20.40
2023-06-17T01:47:52.583Z,20.40
2023-06-17T01:50:21.192Z,20.30
2023-06-17T01:52:49.278Z,20.50
2023-06-17T01:55:18.640Z,20.50
2023-06-17T01:57:46.788Z,20.40
2023-06-17T02:00:15.181Z,20.40
2023-06-17T02:02:52.735Z,20.40
2023-06-17T02:05:21.649Z,20.50
2023-06-17T02:07:49.591Z,20.50
2023-06-17T02:10:17.887Z,20.40
2023-06-17T02:12:45.892Z,20.30
2023-06-17T02:15:14.709Z,20.30
2023-06-17T02:17:44.451Z,20.40
2023-06-17T02:20:12.946Z,20.40
2023-06-17T02:22:40.952Z,20.40
2023-06-17T02:25:08.989Z,20.30
2023-06-17T02:27:37.619Z,20.10
2023-06-17T02:30:06.056Z,20.10
2023-06-17T02:32:34.181Z,20.10
2023-06-17T02:35:01.992Z,20.00
2023-06-17T02:37:30.013Z,20.20
2023-06-17T02:39:57.937Z,20.10
2023-06-17T02:42:25.900Z,20.00
2023-06-17T02:44:53.730Z,20.00
2023-06-17T02:47:21.724Z,19.90
2023-06-17T02:49:49.488Z,19.80
2023-06-17T02:52:17.262Z,19.80
2023-06-17T02:54:45.335Z,19.70
2023-06-17T02:57:18.871Z,19.70
2023-06-17T02:59:47.003Z,19.80
2023-06-17T03:02:14.900Z,19.80
2023-06-17T03:04:42.896Z,19.70
2023-06-17T03:07:16.929Z,19.70
2023-06-17T03:09:45.664Z,19.70
2023-06-17T03:12:13.448Z,19.70
2023-06-17T03:14:41.832Z,19.70
2023-06-17T03:17:14.936Z,19.70
2023-06-17T03:19:43.756Z,19.60
2023-06-17T03:22:11.592Z,19.60
2023-06-17T03:24:43.471Z,19.50
2023-06-17T03:27:12.613Z,19.50
2023-06-17T03:29:41.240Z,19.50
2023-06-17T03:32:09.965Z,19.40
2023-06-17T03:34:37.958Z,19.50
2023-06-17T03:37:10.234Z,19.40
2023-06-17T03:39:38.128Z,19.30
2023-06-17T03:42:06.420Z,19.40
2023-06-17T03:44:34.209Z,19.50
2023-06-17T03:47:02.173Z,19.50
2023-06-17T03:49:30.088Z,19.50
2023-06-17T03:51:57.998Z,19.60
2023-06-17T03:54:26.170Z,19.60
2023-06-17T03:56:54.092Z,19.70
2023-06-17T03:59:21.829Z,19.70
2023-06-17T04:01:49.629Z,19.90
2023-06-17T04:04:17.794Z,19.80
2023-06-17T04:06:46.957Z,19.70
2023-06-17T04:09:15.552Z,19.60
2023-06-17T04:11:43.618Z,19.50
2023-06-17T04:14:12.717Z,19.60
2023-06-17T04:16:43.047Z,19.60
2023-06-17T04:19:15.287Z,19.70
2023-06-17T04:21:43.132Z,19.60
2023-06-17T04:24:11.392Z,19.60
2023-06-17T04:26:39.307Z,19.60
2023-06-17T04:29:07.152Z,19.50
2023-06-17T04:31:36.971Z,19.60
2023-06-17T04:34:06.769Z,19.60
2023-06-17T04:36:35.208Z,19.60
2023-06-17T04:39:03.125Z,19.70
2023-06-17T04:41:34.000Z,19.80
2023-06-17T04:44:02.504Z,20.00
2023-06-17T04:46:31.425Z,20.00
2023-06-17T04:48:59.856Z,20.10
2023-06-17T04:51:27.844Z,20.20
2023-06-17T04:53:55.605Z,20.20
2023-06-17T04:56:28.182Z,20.20
2023-06-17T04:58:56.310Z,20.20
2023-06-17T05:01:24.095Z,20.50
2023-06-17T05:03:52.173Z,20.30
2023-06-17T05:06:20.349Z,20.40
2023-06-17T05:08:48.418Z,20.30
2023-06-17T05:11:16.540Z,20.20
2023-06-17T05:13:46.201Z,20.20
2023-06-17T05:16:14.039Z,20.20
2023-06-17T05:18:43.031Z,20.30
2023-06-17T05:21:11.761Z,20.50
2023-06-17T05:23:39.716Z,20.60
2023-06-17T05:26:09.039Z,20.70
2023-06-17T05:28:37.473Z,20.80
2023-06-17T05:31:05.512Z,20.80
2023-06-17T05:33:33.475Z,20.70
2023-06-17T05:36:01.899Z,20.90
2023-06-17T05:38:31.879Z,21.00
2023-06-17T05:40:59.772Z,20.90
2023-06-17T05:43:29.595Z,21.00
2023-06-17T05:45:58.823Z,21.20
2023-06-17T05:48:26.902Z,21.20
2023-06-17T05:50:55.455Z,21.30
2023-06-17T05:53:23.219Z,21.50
2023-06-17T05:55:51.945Z,21.50
2023-06-17T05:58:20.093Z,21.70
2023-06-17T06:01:00.069Z,21.70
2023-06-17T06:03:27.975Z,21.70
2023-06-17T06:05:55.811Z,21.80
2023-06-17T06:08:23.578Z,22.00
2023-06-17T06:10:51.513Z,22.30
2023-06-17T06:13:19.420Z,22.40
2023-06-17T06:15:47.790Z,22.40
2023-06-17T06:18:15.869Z,22.50
2023-06-17T06:20:43.820Z,22.50
2023-06-17T06:23:11.677Z,22.70
2023-06-17T06:25:39.572Z,22.80
2023-06-17T06:28:08.361Z,22.90
2023-06-17T06:30:36.262Z,23.00
2023-06-17T06:33:04.216Z,23.00
2023-06-17T06:35:32.912Z,23.10
2023-06-17T06:38:01.715Z,23.00
2023-06-17T06:40:29.623Z,23.10
2023-06-17T06:42:57.426Z,23.30
2023-06-17T06:45:27.361Z,23.30
2023-06-17T06:47:56.386Z,23.30
2023-06-17T06:50:24.402Z,23.50
2023-06-17T06:52:54.209Z,23.70
2023-06-17T06:55:23.118Z,23.70
2023-06-17T06:57:53.596Z,23.80
2023-06-17T07:00:21.816Z,24.00
2023-06-17T07:02:51.179Z,23.90
2023-06-17T07:05:23.533Z,23.80
2023-06-17T07:07:55.720Z,24.00
2023-06-17T07:10:24.019Z,24.20
2023-06-17T07:12:51.926Z,24.20
2023-06-17T07:15:20.938Z,24.40
2023-06-17T07:17:50.979Z,24.40
2023-06-17T07:20:19.081Z,24.40
2023-06-17T07:22:48.134Z,24.50
2023-06-17T07:25:18.124Z,24.60
2023-06-17T07:27:46.676Z,24.80
2023-06-17T07:30:16.152Z,24.90
2023-06-17T07:32:43.991Z,24.90
2023-06-17T07:35:11.863Z,25.00
2023-06-17T07:37:39.753Z,25.00
2023-06-17T07:40:14.134Z,25.00
2023-06-17T07:42:45.171Z,25.20
2023-06-17T07:45:13.318Z,25.20
2023-06-17T07:47:41.149Z,25.20
2023-06-17T07:50:10.001Z,25.20
2023-06-17T07:52:38.166Z,25.20
2023-06-17T07:55:08.620Z,25.30
2023-06-17T07:57:36.736Z,25.40
2023-06-17T08:00:11.450Z,25.50
2023-06-17T08:02:44.877Z,25.60
2023-06-17T08:05:12.900Z,25.60
2023-06-17T08:07:40.746Z,25.70
2023-06-17T08:10:10.295Z,25.80
2023-06-17T08:12:38.629Z,25.50
2023-06-17T08:15:07.183Z,25.40
2023-06-17T08:17:35.078Z,25.50
2023-06-17T08:20:05.296Z,25.50
2023-06-17T08:22:33.161Z,25.70
2023-06-17T08:25:00.939Z,25.80
2023-06-17T08:27:31.889Z,25.70
2023-06-17T08:30:00.322Z,25.70
2023-06-17T08:32:28.225Z,25.80
2023-06-17T08:34:56.185Z,26.10
2023-06-17T08:37:23.985Z,26.20
2023-06-17T08:39:51.723Z,26.20
2023-06-17T08:42:19.533Z,26.10
2023-06-17T08:44:47.959Z,26.20
2023-06-17T08:47:17.212Z,26.40
2023-06-17T08:49:45.773Z,26.50
2023-06-17T08:52:17.444Z,26.60
2023-06-17T08:54:46.537Z,26.80
2023-06-17T08:57:14.695Z,26.90
2023-06-17T08:59:42.623Z,26.80
2023-06-17T09:02:12.101Z,27.00
2023-06-17T09:04:41.266Z,27.00
2023-06-17T09:07:10.857Z,27.00
2023-06-17T09:09:38.990Z,27.10
2023-06-17T09:12:09.659Z,27.20
2023-06-17T09:14:38.122Z,27.40
2023-06-17T09:17:05.980Z,27.40
2023-06-17T09:19:33.979Z,27.50
2023-06-17T09:22:08.049Z,27.50
2023-06-17T09:24:36.297Z,27.50
2023-06-17T09:27:04.296Z,27.50
2023-06-17T09:29:36.020Z,27.50
2023-06-17T09:32:05.930Z,27.80
2023-06-17T09:34:33.910Z,27.80
2023-06-17T09:37:03.018Z,27.80
2023-06-17T09:39:33.082Z,27.70
2023-06-17T09:42:11.957Z,27.80
2023-06-17T09:44:41.163Z,27.90
2023-06-17T09:47:09.832Z,28.00
2023-06-17T09:49:38.394Z,27.90
2023-06-17T09:52:09.714Z,28.00
2023-06-17T09:54:38.740Z,28.20
2023-06-17T09:57:11.197Z,28.20
2023-06-17T09:59:39.237Z,28.20
2023-06-17T10:02:08.137Z,28.40
2023-06-17T10:04:38.957Z,28.30
2023-06-17T10:07:08.245Z,28.10
2023-06-17T10:09:36.506Z,28.20
2023-06-17T10:12:06.146Z,28.40
2023-06-17T10:14:35.101Z,28.40
2023-06-17T10:17:06.837Z,28.60
2023-06-17T10:19:36.684Z,28.60
2023-06-17T10:22:09.435Z,28.60
2023-06-17T10:24:37.740Z,28.60
2023-06-17T10:27:07.929Z,28.60
2023-06-17T10:29:35.905Z,28.70
2023-06-17T10:32:27.011Z,28.80
2023-06-17T10:35:07.079Z,29.00
2023-06-17T10:37:42.889Z,28.90
2023-06-17T10:40:27.801Z,28.90
2023-06-17T10:43:04.950Z,28.80
2023-06-17T10:45:34.254Z,28.90
2023-06-17T10:48:37.852Z,29.20
2023-06-17T10:51:11.320Z,29.30
2023-06-17T10:53:47.010Z,29.40
2023-06-17T10:56:15.232Z,29.20
2023-06-17T10:58:48.615Z,29.30
2023-06-17T11:01:16.824Z,29.40
2023-06-17T11:03:46.082Z,29.30
2023-06-17T11:06:14.825Z,29.40
2023-06-17T11:08:42.590Z,29.50
2023-06-17T11:11:15.636Z,29.80
2023-06-17T11:13:45.626Z,30.00
2023-06-17T11:16:13.526Z,30.10
2023-06-17T11:18:46.165Z,30.10
2023-06-17T11:21:15.187Z,30.00
2023-06-17T11:23:46.049Z,30.30
2023-06-17T11:26:14.540Z,30.40
2023-06-17T11:28:45.282Z,30.50
2023-06-17T11:31:13.159Z,30.60
2023-06-17T11:33:42.103Z,30.20
2023-06-17T11:36:14.311Z,30.30
2023-06-17T11:38:44.031Z,30.20
2023-06-17T11:41:11.859Z,30.10
2023-06-17T11:43:39.829Z,30.20
2023-06-17T11:46:07.719Z,30.10
2023-06-17T11:48:36.529Z,30.10
2023-06-17T11:51:04.539Z,30.30
2023-06-17T11:53:36.251Z,30.00
2023-06-17T11:56:09.128Z,30.20
2023-06-17T11:58:39.658Z,30.40
2023-06-17T12:01:09.447Z,30.50
2023-06-17T12:03:38.184Z,30.40
2023-06-17T12:06:06.481Z,30.40
2023-06-17T12:08:38.629Z,30.60
2023-06-17T12:11:08.671Z,30.80
2023-06-17T12:13:40.688Z,30.70
2023-06-17T12:16:12.402Z,31.00
2023-06-17T12:18:49.707Z,30.80
2023-06-17T12:21:19.585Z,30.90
2023-06-17T12:23:47.583Z,31.00
2023-06-17T12:26:16.622Z,31.30
2023-06-17T12:28:45.406Z,31.40
2023-06-17T12:31:13.996Z,31.40
2023-06-17T12:33:41.917Z,31.50
2023-06-17T12:36:09.678Z,31.70
2023-06-17T12:38:39.148Z,31.50
2023-06-17T12:41:08.166Z,31.30
2023-06-17T12:43:36.626Z,31.20
2023-06-17T12:46:05.717Z,31.40
2023-06-17T12:48:37.077Z,31.30
2023-06-17T12:51:05.356Z,31.40
2023-06-17T12:53:33.113Z,31.20
2023-06-17T12:56:01.004Z,31.30
2023-06-17T12:58:29.308Z,31.40
2023-06-17T13:00:57.594Z,31.50
2023-06-17T13:03:25.536Z,31.10
2023-06-17T13:05:53.707Z,31.30
2023-06-17T13:08:21.773Z,31.30
2023-06-17T13:10:49.488Z,31.50
2023-06-17T13:13:17.587Z,31.70
2023-06-17T13:15:45.356Z,31.50
2023-06-17T13:18:14.142Z,31.70
2023-06-17T13:20:42.088Z,31.90
2023-06-17T13:23:10.009Z,32.10
2023-06-17T13:25:37.843Z,31.80
2023-06-17T13:28:06.172Z,31.60
2023-06-17T13:30:34.503Z,31.40
2023-06-17T13:33:02.847Z,31.60
2023-06-17T13:35:30.650Z,32.00
2023-06-17T13:37:59.801Z,32.30
2023-06-17T13:40:27.628Z,32.50
2023-06-17T13:42:55.524Z,32.30
2023-06-17T13:45:23.494Z,32.30
2023-06-17T13:47:51.415Z,32.50
2023-06-17T13:50:19.391Z,32.10
2023-06-17T13:52:47.496Z,31.80
2023-06-17T13:55:15.306Z,31.40
2023-06-17T13:57:42.995Z,31.70
2023-06-17T14:00:11.824Z,31.90
2023-06-17T14:02:39.643Z,32.00
2023-06-17T14:05:07.820Z,32.30
2023-06-17T14:07:35.580Z,32.70
2023-06-17T14:10:03.472Z,32.60
2023-06-17T14:12:31.331Z,32.70
2023-06-17T14:14:59.074Z,32.40
2023-06-17T14:17:26.906Z,32.00
2023-06-17T14:19:54.732Z,32.30
2023-06-17T14:22:22.406Z,32.30
2023-06-17T14:24:50.184Z,32.30
2023-06-17T14:27:37.131Z,32.50
2023-06-17T14:30:06.480Z,32.80
2023-06-17T14:32:34.446Z,33.10
2023-06-17T14:35:02.313Z,33.10
2023-06-17T14:37:30.435Z,33.10
2023-06-17T14:39:58.555Z,33.20
2023-06-17T14:42:26.495Z,33.30
2023-06-17T14:44:54.327Z,32.90
2023-06-17T14:47:22.764Z,32.60
2023-06-17T14:49:50.593Z,32.40
2023-06-17T14:52:18.421Z,32.10
2023-06-17T14:54:46.502Z,32.20
2023-06-17T14:57:14.230Z,32.50
2023-06-17T14:59:42.284Z,32.70
2023-06-17T15:02:14.164Z,32.50
2023-06-17T15:04:44.937Z,32.60
2023-06-17T15:07:14.042Z,32.90
2023-06-17T15:09:42.248Z,32.80
2023-06-17T15:12:14.134Z,33.10
2023-06-17T15:14:42.113Z,33.10
2023-06-17T15:17:09.946Z,33.10
2023-06-17T15:19:37.701Z,33.20
2023-06-17T15:22:05.746Z,32.90
2023-06-17T15:24:33.632Z,32.90
2023-06-17T15:27:01.439Z,33.10
2023-06-17T15:29:29.224Z,33.10
2023-06-17T15:31:56.965Z,33.10
2023-06-17T15:34:24.767Z,33.10
2023-06-17T15:36:52.645Z,32.90
2023-06-17T15:39:26.538Z,32.70
2023-06-17T15:41:54.927Z,32.60
2023-06-17T15:44:23.757Z,32.40
2023-06-17T15:46:52.086Z,32.30
2023-06-17T15:49:19.966Z,32.50
2023-06-17T15:51:47.758Z,32.40
2023-06-17T15:54:15.806Z,32.80
2023-06-17T15:56:47.459Z,32.80
2023-06-17T15:59:15.643Z,32.80
2023-06-17T16:01:43.682Z,32.80
2023-06-17T16:04:33.629Z,32.70
2023-06-17T16:07:07.403Z,32.50
2023-06-17T16:09:36.469Z,32.60
2023-06-17T16:12:05.290Z,32.60
2023-06-17T16:14:34.035Z,32.50
2023-06-17T16:17:04.352Z,32.20
2023-06-17T16:19:33.283Z,32.30
2023-06-17T16:22:04.536Z,32.20
2023-06-17T16:24:32.534Z,31.90
2023-06-17T16:27:01.010Z,32.00
2023-06-17T16:29:28.935Z,31.90
2023-06-17T16:31:56.758Z,31.90
2023-06-17T16:34:24.650Z,31.70
2023-06-17T16:36:52.420Z,31.70
2023-06-17T16:39:20.411Z,31.40
2023-06-17T16:41:48.289Z,31.40
2023-06-17T16:44:16.140Z,31.10
2023-06-17T16:46:44.000Z,31.20
2023-06-17T16:49:11.815Z,31.30
2023-06-17T16:51:39.642Z,31.40
2023-06-17T16:54:08.287Z,31.40
2023-06-17T16:56:36.479Z,31.40
2023-06-17T16:59:04.256Z,31.60
2023-06-17T17:01:32.263Z,32.00
2023-06-17T17:04:01.640Z,32.20
2023-06-17T17:06:29.534Z,32.50
2023-06-17T17:08:57.263Z,32.30
2023-06-17T17:11:25.064Z,32.50
2023-06-17T17:13:52.926Z,32.60
2023-06-17T17:16:20.748Z,32.50
2023-06-17T17:18:48.560Z,32.70
2023-06-17T17:21:16.394Z,33.00
2023-06-17T17:23:45.695Z,33.20
2023-06-17T17:26:13.897Z,33.20
2023-06-17T17:28:42.998Z,33.50
2023-06-17T17:31:10.852Z,33.20
2023-06-17T17:33:39.002Z,33.10
2023-06-17T17:36:07.176Z,33.10
2023-06-17T17:38:35.002Z,33.60
2023-06-17T17:41:02.798Z,33.80
2023-06-17T17:43:31.258Z,33.70
2023-06-17T17:45:59.468Z,33.70
2023-06-17T17:48:27.376Z,33.50
2023-06-17T17:50:55.216Z,33.10
2023-06-17T17:53:23.234Z,32.60
2023-06-17T17:55:51.116Z,32.10
2023-06-17T17:58:18.858Z,31.60
2023-06-17T18:00:47.020Z,31.20
2023-06-17T18:03:14.944Z,30.70
2023-06-17T18:05:42.940Z,30.60
2023-06-17T18:08:10.692Z,30.50
2023-06-17T18:10:38.590Z,30.20
2023-06-17T18:13:06.371Z,30.10
2023-06-17T18:15:34.143Z,30.00
2023-06-17T18:18:01.934Z,29.80
2023-06-17T18:20:29.760Z,29.70
2023-06-17T18:22:57.718Z,29.60
2023-06-17T18:25:25.906Z,29.40
2023-06-17T18:27:53.656Z,29.20
2023-06-17T18:30:21.728Z,29.10
2023-06-17T18:32:49.760Z,29.00
2023-06-17T18:35:17.531Z,28.90
2023-06-17T18:37:45.483Z,28.80
2023-06-17T18:40:13.503Z,28.60
2023-06-17T18:42:41.214Z,28.60
2023-06-17T18:45:10.417Z,28.40
2023-06-17T18:47:38.422Z,28.40
2023-06-17T18:50:07.504Z,28.30
2023-06-17T18:52:35.350Z,28.20
2023-06-17T18:55:03.128Z,28.00
2023-06-17T18:57:31.287Z,27.90
2023-06-17T18:59:59.043Z,27.90
2023-06-17T19:02:28.354Z,27.70
2023-06-17T19:04:57.222Z,27.70
2023-06-17T19:07:25.044Z,27.40
2023-06-17T19:09:52.864Z,27.20
2023-06-17T19:12:20.627Z,27.30
2023-06-17T19:14:48.369Z,27.10
2023-06-17T19:17:16.230Z,26.90
2023-06-17T19:19:43.986Z,26.90
2023-06-17T19:22:11.750Z,26.90
2023-06-17T19:24:39.573Z,26.80
2023-06-17T19:27:07.417Z,26.70
2023-06-17T19:29:38.243Z,26.50
2023-06-17T19:32:06.706Z,26.50
2023-06-17T19:34:34.496Z,26.40
2023-06-17T19:37:02.367Z,26.40
2023-06-17T19:39:30.297Z,26.40
2023-06-17T19:41:58.009Z,26.40
2023-06-17T19:44:25.853Z,26.40
2023-06-17T19:46:53.618Z,26.40
2023-06-17T19:49:21.552Z,26.30
2023-06-17T19:51:49.367Z,26.20
2023-06-17T19:54:19.546Z,26.10
2023-06-17T19:56:48.527Z,26.10
2023-06-17T19:59:16.430Z,26.20
2023-06-17T20:01:44.269Z,26.30
2023-06-17T20:04:12.217Z,26.40
2023-06-17T20:06:40.135Z,26.30
2023-06-17T20:09:09.039Z,26.30
2023-06-17T20:11:36.956Z,26.40
2023-06-17T20:14:04.694Z,26.30
2023-06-17T20:16:32.562Z,26.20
2023-06-17T20:19:00.397Z,26.10
2023-06-17T20:21:28.206Z,26.10
2023-06-17T20:23:55.970Z,26.10
2023-06-17T20:26:24.078Z,26.10
2023-06-17T20:28:51.722Z,26.00
2023-06-17T20:31:19.520Z,26.00
2023-06-17T20:33:48.358Z,26.00
2023-06-17T20:36:16.237Z,25.90
2023-06-17T20:38:44.007Z,25.90
2023-06-17T20:41:12.213Z,25.80
2023-06-17T20:43:39.940Z,25.80
2023-06-17T20:46:07.883Z,25.80
2023-06-17T20:48:35.672Z,25.70
2023-06-17T20:51:05.514Z,25.60
2023-06-17T20:53:33.340Z,25.60
2023-06-17T20:56:01.224Z,25.60
2023-06-17T20:58:29.006Z,25.40
2023-06-17T21:00:56.833Z,25.30
2023-06-17T21:03:24.677Z,25.30
2023-06-17T21:05:52.380Z,25.20
2023-06-17T21:08:20.324Z,25.10
2023-06-17T21:10:48.469Z,25.00
2023-06-17T21:13:16.190Z,25.00
2023-06-17T21:15:44.084Z,25.00
2023-06-17T21:18:11.937Z,25.00
2023-06-17T21:20:39.680Z,25.00
2023-06-17T21:23:07.398Z,25.10
2023-06-17T21:25:35.141Z,25.10
2023-06-17T21:28:02.969Z,25.00
2023-06-17T21:30:30.799Z,25.00
2023-06-17T21:32:58.692Z,24.90
2023-06-17T21:35:26.548Z,24.80
2023-06-17T21:37:54.267Z,24.80
2023-06-17T21:40:22.438Z,24.80
2023-06-17T21:42:50.438Z,24.80
2023-06-17T21:45:18.197Z,24.70
2023-06-17T21:47:46.041Z,24.60
2023-06-17T21:50:13.817Z,24.40
2023-06-17T21:52:41.799Z,24.20
2023-06-17T21:55:09.944Z,24.20
2023-06-17T21:57:37.652Z,24.10
2023-06-17T22:00:07.135Z,24.00
2023-06-17T22:02:40.118Z,23.90
2023-06-17T22:05:08.682Z,23.90
2023-06-17T22:07:36.567Z,23.80
2023-06-17T22:10:04.836Z,23.90
2023-06-17T22:12:32.649Z,23.90
2023-06-17T22:15:03.423Z,23.80
2023-06-17T22:17:31.824Z,23.80
2023-06-17T22:19:59.631Z,23.60
2023-06-17T22:22:27.339Z,23.60
2023-06-17T22:24:55.061Z,23.50
2023-06-17T22:27:22.909Z,23.30
2023-06-17T22:29:50.747Z,23.10
2023-06-17T22:32:18.748Z,23.20
2023-06-17T22:34:46.493Z,23.30
2023-06-17T22:37:14.979Z,23.40
2023-06-17T22:39:43.071Z,23.30
2023-06-17T22:42:10.876Z,23.30
2023-06-17T22:44:38.591Z,23.30
2023-06-17T22:47:06.547Z,23.20
2023-06-17T22:49:34.446Z,23.10
2023-06-17T22:52:02.192Z,23.10
2023-06-17T22:54:32.555Z,23.10
2023-06-17T22:57:00.346Z,23.10
2023-06-17T22:59:28.099Z,22.90
2023-06-17T23:01:55.928Z,22.70
2023-06-17T23:04:23.873Z,22.50
2023-06-17T23:06:51.766Z,22.50
2023-06-17T23:09:19.532Z,22.30
2023-06-17T23:11:47.283Z,22.40
2023-06-17T23:14:15.000Z,22.30
2023-06-17T23:16:42.776Z,22.20
2023-06-17T23:19:10.654Z,22.10
2023-06-17T23:21:40.923Z,22.10
2023-06-17T23:24:09.087Z,22.10
2023-06-17T23:26:36.860Z,22.00
2023-06-17T23:29:04.595Z,22.00
2023-06-17T23:31:32.457Z,21.90
2023-06-17T23:34:00.310Z,21.80
2023-06-17T23:36:28.043Z,21.90
2023-06-17T23:38:56.652Z,22.00
2023-06-17T23:41:24.719Z,21.90
2023-06-17T23:43:52.434Z,21.70
2023-06-17T23:46:20.107Z,21.60
2023-06-17T23:48:48.034Z,21.60
2023-06-17T23:51:16.010Z,21.80
2023-06-17T23:53:43.919Z,21.60
2023-06-17T23:56:12.225Z,21.50
2023-06-17T23:58:40.271Z,21.70
